createdAt,value
2023-01-01T00:01:40.531Z,8.10
2023-01-01T00:06:32.746Z,8.07
2023-01-01T00:11:24.535Z,8.04
2023-01-01T00:16:16.316Z,8.04
2023-01-01T00:21:12.458Z,8.01
2023-01-01T00:26:11.814Z,8.01
2023-01-01T00:31:11.567Z,8.03
2023-01-01T00:36:14.149Z,8.08
2023-01-01T00:41:06.044Z,8.11
2023-01-01T00:45:57.824Z,8.11
2023-01-01T00:50:50.746Z,8.16
2023-01-01T00:55:44.293Z,8.19
2023-01-01T01:00:36.852Z,8.17
2023-01-01T01:05:28.587Z,8.16
2023-01-01T01:10:22.285Z,8.12
2023-01-01T01:15:15.293Z,8.06
2023-01-01T01:20:07.985Z,8.04
2023-01-01T01:24:59.670Z,8.02
2023-01-01T01:29:51.551Z,7.98
2023-01-01T01:34:43.163Z,7.95
2023-01-01T01:39:34.997Z,7.88
2023-01-01T01:44:48.541Z,7.83
2023-01-01T01:49:40.345Z,7.80
2023-01-01T01:54:32.269Z,7.76
2023-01-01T01:59:27.528Z,7.73
2023-01-01T02:04:19.886Z,7.64
2023-01-01T02:09:11.738Z,7.59
2023-01-01T02:14:04.160Z,7.51
2023-01-01T02:19:06.066Z,7.49
2023-01-01T02:24:21.342Z,7.40
2023-01-01T02:29:30.903Z,7.32
2023-01-01T02:34:27.221Z,7.32
2023-01-01T02:39:22.832Z,7.30
2023-01-01T02:44:15.507Z,7.27
2023-01-01T02:49:10.595Z,7.21
2023-01-01T02:54:20.640Z,7.19
2023-01-01T02:59:43.250Z,7.12
2023-01-01T03:04:40.444Z,7.11
2023-01-01T03:09:44.665Z,7.09
2023-01-01T03:14:54.013Z,7.06
2023-01-01T03:19:48.720Z,7.07
2023-01-01T03:24:59.394Z,7.03
2023-01-01T03:29:56.729Z,6.98
2023-01-01T03:34:57.433Z,6.96
2023-01-01T03:39:53.081Z,6.91
2023-01-01T03:44:54.348Z,6.89
2023-01-01T03:49:46.891Z,6.88
2023-01-01T03:55:15.273Z,6.94
2023-01-01T04:00:09.637Z,6.94
2023-01-01T04:05:05.095Z,6.89
2023-01-01T04:10:00.620Z,6.82
2023-01-01T04:14:52.424Z,6.77
2023-01-01T04:19:44.900Z,6.73
2023-01-01T04:24:39.260Z,6.69
2023-01-01T04:29:31.011Z,6.67
2023-01-01T04:34:22.820Z,6.61
2023-01-01T04:39:14.422Z,6.60
2023-01-01T04:44:06.150Z,6.57
2023-01-01T04:48:58.065Z,6.59
2023-01-01T04:53:49.650Z,6.60
2023-01-01T04:58:42.739Z,6.61
2023-01-01T05:03:37.940Z,6.57
2023-01-01T05:08:34.233Z,6.55
2023-01-01T05:13:25.940Z,6.55
2023-01-01T05:18:17.515Z,6.54
2023-01-01T05:23:09.105Z,6.50
2023-01-01T05:28:00.850Z,6.48
2023-01-01T05:32:52.532Z,6.43
2023-01-01T05:37:44.225Z,6.44
2023-01-01T05:42:36.215Z,6.45
2023-01-01T05:47:30.062Z,6.47
2023-01-01T05:52:26.465Z,6.52
2023-01-01T05:57:18.654Z,6.57
2023-01-01T06:02:10.396Z,6.61
2023-01-01T06:07:02.223Z,6.62
2023-01-01T06:11:53.885Z,6.66
2023-01-01T06:16:45.581Z,6.67
2023-01-01T06:21:37.286Z,6.73
2023-01-01T06:26:31.732Z,6.80
2023-01-01T06:31:24.586Z,6.86
2023-01-01T06:36:17.715Z,6.95
2023-01-01T06:41:23.658Z,7.01
2023-01-01T06:46:33.873Z,7.06
2023-01-01T06:51:28.262Z,7.01
2023-01-01T06:56:20.714Z,6.93
2023-01-01T07:01:15.468Z,6.80
2023-01-01T07:06:08.459Z,6.73
2023-01-01T07:11:00.624Z,6.74
2023-01-01T07:15:53.472Z,6.73
2023-01-01T07:20:49.815Z,6.76
2023-01-01T07:25:42.397Z,6.84
2023-01-01T07:30:34.130Z,6.85
2023-01-01T07:35:25.950Z,6.81
2023-01-01T07:40:17.593Z,6.82
2023-01-01T07:45:12.486Z,6.79
2023-01-01T07:50:04.590Z,6.76
2023-01-01T07:54:56.303Z,6.70
2023-01-01T07:59:47.929Z,6.69
2023-01-01T08:04:39.916Z,6.65
2023-01-01T08:09:31.655Z,6.63
2023-01-01T08:14:23.372Z,6.64
2023-01-01T08:19:15.018Z,6.64
2023-01-01T08:24:06.959Z,6.62
2023-01-01T08:28:59.184Z,6.61
2023-01-01T08:33:50.825Z,6.63
2023-01-01T08:38:43.706Z,6.65
2023-01-01T08:43:35.351Z,6.68
2023-01-01T08:48:30.704Z,6.74
2023-01-01T08:53:23.121Z,6.80
2023-01-01T08:58:14.781Z,6.87
2023-01-01T09:03:06.784Z,6.93
2023-01-01T09:07:58.562Z,6.95
2023-01-01T09:12:50.244Z,7.03
2023-01-01T09:17:41.874Z,7.12
2023-01-01T09:22:34.179Z,7.21
2023-01-01T09:27:25.863Z,7.33
2023-01-01T09:32:18.794Z,7.35
2023-01-01T09:37:10.462Z,7.44
2023-01-01T09:42:26.525Z,7.51
2023-01-01T09:47:23.324Z,7.71
2023-01-01T09:52:16.787Z,7.80
2023-01-01T09:57:19.601Z,7.83
2023-01-01T10:02:41.419Z,7.84
2023-01-01T10:08:00.382Z,7.87
2023-01-01T10:13:06.455Z,7.88
2023-01-01T10:18:00.607Z,7.93
2023-01-01T10:23:14.905Z,7.94
2023-01-01T10:28:23.806Z,7.97
2023-01-01T10:33:15.509Z,8.00
2023-01-01T10:38:07.750Z,8.05
2023-01-01T10:43:01.518Z,8.11
2023-01-01T10:48:25.986Z,8.05
2023-01-01T10:53:35.609Z,7.96
2023-01-01T10:58:35.238Z,7.87
2023-01-01T11:03:27.048Z,7.80
2023-01-01T11:08:19.387Z,7.77
2023-01-01T11:13:20.078Z,7.73
2023-01-01T11:18:20.737Z,7.71
2023-01-01T11:23:39.336Z,7.73
2023-01-01T11:28:34.426Z,7.69
2023-01-01T11:33:27.584Z,7.69
2023-01-01T11:38:24.435Z,7.67
2023-01-01T11:43:22.634Z,7.68
2023-01-01T11:48:28.238Z,7.71
2023-01-01T11:53:22.920Z,7.73
2023-01-01T11:58:38.792Z,7.75
2023-01-01T12:03:55.555Z,7.79
2023-01-01T12:08:50.902Z,7.83
2023-01-01T12:13:52.413Z,7.85
2023-01-01T12:18:56.136Z,7.81
2023-01-01T12:23:47.804Z,7.84
2023-01-01T12:28:57.874Z,7.91
2023-01-01T12:34:13.259Z,7.99
2023-01-01T12:39:45.547Z,8.03
2023-01-01T12:44:55.492Z,8.06
2023-01-01T12:50:10.606Z,8.09
2023-01-01T12:55:20.829Z,8.11
2023-01-01T13:00:18.118Z,8.15
2023-01-01T13:05:43.286Z,8.22
2023-01-01T13:10:39.219Z,8.25
2023-01-01T13:15:44.173Z,8.30
2023-01-01T13:20:41.064Z,8.34
2023-01-01T13:25:32.762Z,8.39
2023-01-01T13:30:36.434Z,8.45
2023-01-01T13:35:28.256Z,8.48
2023-01-01T13:40:30.240Z,8.50
2023-01-01T13:50:59.403Z,8.53
2023-01-01T13:56:15.577Z,8.48
2023-01-01T14:01:13.018Z,8.45
2023-01-01T14:06:14.583Z,8.43
2023-01-01T14:11:24.850Z,8.48
2023-01-01T14:16:16.846Z,8.50
2023-01-01T14:21:15.561Z,8.50
2023-01-01T14:26:12.570Z,8.51
2023-01-01T14:31:22.517Z,8.50
2023-01-01T14:36:22.232Z,8.47
2023-01-01T14:41:40.830Z,8.42
2023-01-01T14:46:33.292Z,8.36
2023-01-01T14:51:26.937Z,8.33
2023-01-01T14:56:26.178Z,8.31
2023-01-01T15:01:24.001Z,8.29
2023-01-01T15:06:18.058Z,8.30
2023-01-01T15:11:09.793Z,8.28
2023-01-01T15:16:20.171Z,8.25
2023-01-01T15:21:30.796Z,8.23
2023-01-01T15:26:29.250Z,8.21
2023-01-01T15:31:21.026Z,8.15
2023-01-01T15:36:12.664Z,8.09
2023-01-01T15:41:45.090Z,8.03
2023-01-01T15:46:36.865Z,7.98
2023-01-01T15:51:29.713Z,7.97
2023-01-01T15:56:25.983Z,7.95
2023-01-01T16:01:27.819Z,7.92
2023-01-01T16:06:21.792Z,7.88
2023-01-01T16:11:14.543Z,7.86
2023-01-01T16:16:22.519Z,7.84
2023-01-01T16:21:14.215Z,7.79
2023-01-01T16:26:05.813Z,7.77
2023-01-01T16:30:58.125Z,7.75
2023-01-01T16:35:50.025Z,7.75
2023-01-01T16:40:41.737Z,7.74
2023-01-01T16:45:33.479Z,7.75
2023-01-01T16:50:25.258Z,7.74
2023-01-01T16:55:17.011Z,7.75
2023-01-01T17:00:09.469Z,7.76
2023-01-01T17:05:01.153Z,7.78
2023-01-01T17:09:52.830Z,7.80
2023-01-01T17:14:44.585Z,7.81
2023-01-01T17:19:36.299Z,7.83
2023-01-01T17:24:27.998Z,7.83
2023-01-01T17:29:23.642Z,7.84
2023-01-01T17:34:15.540Z,7.87
2023-01-01T17:39:07.221Z,7.90
2023-01-01T17:43:59.373Z,7.91
2023-01-01T17:48:51.689Z,7.90
2023-01-01T17:53:43.693Z,7.87
2023-01-01T17:58:35.902Z,7.86
2023-01-01T18:03:27.768Z,7.83
2023-01-01T18:08:19.459Z,7.81
2023-01-01T18:13:11.279Z,7.82
2023-01-01T18:18:02.985Z,7.80
2023-01-01T18:22:59.539Z,7.85
2023-01-01T18:27:57.175Z,7.85
2023-01-01T18:32:49.429Z,7.85
2023-01-01T18:37:41.175Z,7.85
2023-01-01T18:42:49.040Z,7.82
2023-01-01T18:47:40.677Z,7.80
2023-01-01T18:52:34.222Z,7.80
2023-01-01T18:57:29.465Z,7.78
2023-01-01T19:02:29.040Z,7.76
2023-01-01T19:07:20.719Z,7.73
2023-01-01T19:12:17.801Z,7.71
2023-01-01T19:17:21.495Z,7.67
2023-01-01T19:22:24.481Z,7.65
2023-01-01T19:27:17.921Z,7.62
2023-01-01T19:32:09.681Z,7.61
2023-01-01T19:37:02.161Z,7.62
2023-01-01T19:41:53.908Z,7.60
2023-01-01T19:46:45.768Z,7.60
2023-01-01T19:51:37.500Z,7.57
2023-01-01T19:56:29.144Z,7.56
2023-01-01T20:01:20.898Z,7.52
2023-01-01T20:06:12.696Z,7.53
2023-01-01T20:11:05.801Z,7.56
2023-01-01T20:15:58.256Z,7.57
2023-01-01T20:21:08.379Z,7.56
2023-01-01T20:26:00.044Z,7.52
2023-01-01T20:30:51.759Z,7.48
2023-01-01T20:36:01.916Z,7.46
2023-01-01T20:40:53.705Z,7.43
2023-01-01T20:45:45.494Z,7.38
2023-01-01T20:50:37.338Z,7.35
2023-01-01T20:55:29.054Z,7.32
2023-01-01T21:00:20.807Z,7.28
2023-01-01T21:05:13.089Z,7.23
2023-01-01T21:10:05.248Z,7.19
2023-01-01T21:14:57.040Z,7.10
2023-01-01T21:19:50.894Z,7.09
2023-01-01T21:24:42.917Z,7.04
2023-01-01T21:29:35.508Z,7.03
2023-01-01T21:34:41.780Z,7.04
2023-01-01T21:39:33.459Z,7.05
2023-01-01T21:44:25.233Z,7.03
2023-01-01T21:49:27.958Z,6.98
2023-01-01T21:54:35.401Z,6.92
2023-01-01T21:59:42.000Z,6.86
2023-01-01T22:04:51.634Z,6.85
2023-01-01T22:09:48.431Z,6.84
2023-01-01T22:14:45.989Z,6.85
2023-01-01T22:19:38.552Z,6.83
2023-01-01T22:24:35.259Z,6.81
2023-01-01T22:29:27.233Z,6.78
2023-01-01T22:34:23.265Z,6.77
2023-01-01T22:39:35.508Z,6.75
2023-01-01T22:44:27.528Z,6.70
2023-01-01T22:49:30.414Z,6.63
2023-01-01T22:54:22.105Z,6.60
2023-01-01T22:59:13.960Z,6.54
2023-01-01T23:04:05.608Z,6.54
2023-01-01T23:08:57.522Z,6.54
2023-01-01T23:14:10.571Z,6.50
2023-01-01T23:19:02.525Z,6.47
2023-01-01T23:23:56.376Z,6.42
2023-01-01T23:28:48.337Z,6.41
2023-01-01T23:33:41.203Z,6.40
2023-01-01T23:38:33.523Z,6.36
2023-01-01T23:43:25.184Z,6.36
2023-01-01T23:48:17.517Z,6.37
2023-01-01T23:53:09.362Z,6.38
2023-01-01T23:58:01.031Z,6.35
